Time;durP1;ratioP1;P1;durP2;ratioP2;P2;SDS_P1;SDS_P2;PMS_P1;PMS_P2;Temp;Humidity;BMP_temperature;BMP_pressure;BME280_temperature;BME280_humidity;BME280_pressure;Samples;Min_cycle;Max_cycle;Signal;HPM_P1;HPM_P2
2022/01/21 08:13:00;;;;;;;23.52;11.48;;;;;;;2.36;81.13;102015.81;5931604;23;20955;-95
2022/01/21 08:21:07;;;;;;;22.65;10.80;;;;;;;1.95;80.45;101929.06;5788095;23;21021;-93
2022/01/21 08:42:40;;;;;;;26.08;10.93;;;;;;;2.67;78.99;102008.34;5856997;23;20041;31
2022/01/21 08:51:07;;;;;;;24.20;10.75;;;;;;;3.29;75.94;102000.22;5875947;23;20514;31
2022/01/21 08:57:16;;;;;;;19.45;8.85;;;;;;;3.24;74.24;101983.59;5388998;23;20051;-92
2022/01/21 08:59:48;;;;;;;18.02;8.35;;;;;;;2.99;75.11;101945.88;4972571;28;20055;-93
2022/01/21 09:02:18;;;;;;;22.13;9.80;;;;;;;3.17;74.45;101970.44;5142718;23;20029;-93
2022/01/21 09:04:55;;;;;;;18.83;8.68;;;;;;;3.38;74.69;102010.78;5002087;23;20068;-92
2022/01/21 09:07:24;;;;;;;30.02;9.73;;;;;;;3.08;74.32;101967.78;4941767;29;21648;-93
2022/01/21 09:10:06;;;;;;;16.92;9.00;;;;;;;2.99;74.59;101966.81;4938158;28;20044;-95
2022/01/21 09:16:32;;;;;;;21.65;9.23;;;;;;;3.04;74.60;101963.38;4937504;29;20044;-93
2022/01/21 09:19:03;;;;;;;21.23;9.70;;;;;;;3.31;74.37;102019.44;4925503;29;20051;-96
2022/01/21 09:22:02;;;;;;;21.05;9.18;;;;;;;3.07;73.67;101962.50;4934878;29;20063;-93
2022/01/21 09:24:38;;;;;;;25.38;9.85;;;;;;;3.02;73.88;101961.59;4933852;28;20050;-92
2022/01/21 09:27:29;;;;;;;19.55;9.20;;;;;;;3.40;74.92;102019.53;4938090;29;20051;-95
2022/01/21 09:51:59;;;;;;;28.83;11.18;;;;;;;3.94;75.19;102024.25;6009481;23;20136;31
2022/01/21 10:40:41;;;;;;;17.73;8.82;;;;;;;3.88;72.69;101970.09;5108042;23;20042;-94
2022/01/21 12:56:58;;;;;;;11.20;4.65;;;;;;;5.40;63.93;101950.31;5978333;23;20026;31
2022/01/21 14:03:36;;;;;;;10.25;5.03;;;;;;;5.58;65.65;101952.91;1288803;23;21575;31
2022/01/21 14:06:44;;;;;;;12.32;4.90;;;;;;;5.46;65.92;101924.91;4873420;29;20076;-95
2022/01/21 14:10:10;;;;;;;8.60;5.07;;;;;;;5.37;66.35;101926.66;4872611;29;20046;-95
2022/01/21 14:12:44;;;;;;;11.85;5.43;;;;;;;5.23;66.56;101903.91;4849116;29;20060;-93
2022/01/21 14:18:17;;;;;;;15.82;4.97;;;;;;;5.29;66.73;101893.41;4949494;23;20063;-95
2022/01/21 14:20:44;;;;;;;9.48;5.13;;;;;;;5.60;67.13;101938.03;4927031;29;20377;-94
2022/01/21 14:26:50;;;;;;;13.88;5.72;;;;;;;5.45;68.37;101940.66;4870861;29;20513;-93
2022/01/21 14:29:34;;;;;;;11.05;6.05;;;;;;;5.40;68.43;101945.03;4864458;29;20060;-93
2022/01/21 14:32:36;;;;;;;12.60;5.70;;;;;;;5.14;69.63;101917.06;4881536;29;20045;-94
2022/01/21 14:35:14;;;;;;;11.00;5.97;;;;;;;4.99;70.39;101908.31;4884993;29;20060;-94
2022/01/21 14:37:52;;;;;;;13.13;5.60;;;;;;;4.95;70.94;101899.56;4876268;29;20076;-94
2022/01/21 14:40:30;;;;;;;12.77;6.30;;;;;;;5.03;71.09;101926.69;4869763;29;20125;-94
2022/01/21 14:43:15;;;;;;;10.50;5.43;;;;;;;5.20;70.21;101945.94;4853799;29;20140;-93
2022/01/21 14:45:58;;;;;;;10.55;5.43;;;;;;;4.98;70.79;101925.81;4856651;29;20173;-94
2022/01/21 14:48:32;;;;;;;11.05;5.93;;;;;;;5.00;71.53;101931.94;4870907;29;20059;-94
2022/01/21 14:51:11;;;;;;;11.73;6.65;;;;;;;5.18;71.61;101954.72;4868887;29;20139;-94
2022/01/21 14:53:42;;;;;;;13.32;5.72;;;;;;;4.95;70.56;101917.94;4870140;29;20060;-93
2022/01/21 14:56:24;;;;;;;10.25;6.03;;;;;;;5.16;70.72;101953.84;4863423;29;20045;-94
2022/01/21 14:59:15;;;;;;;;;;;;;;;5.16;71.06;101962.59;4871855;29;20487;-93
2022/01/21 15:02:27;;;;;;;13.15;6.22;;;;;;;4.97;71.56;101954.69;4874131;29;19971;-94
2022/01/21 15:05:02;;;;;;;10.18;7.07;;;;;;;4.79;72.56;101932.78;4868766;29;20171;-96
2022/01/21 15:07:30;;;;;;;10.93;6.35;;;;;;;4.77;72.29;101938.91;4886521;29;20032;-92
2022/01/21 15:10:01;;;;;;;11.35;6.75;;;;;;;4.53;72.75;101917.03;4880083;29;20711;-92
2022/01/21 15:15:55;;;;;;;12.63;7.05;;;;;;;4.59;73.84;101926.63;4874669;29;20056;-94
2022/01/21 15:18:31;;;;;;;11.60;7.35;;;;;;;4.64;74.51;101945.91;4874351;29;20116;-95
2022/01/21 15:21:02;;;;;;;16.15;7.43;;;;;;;4.59;74.53;101926.63;4877653;29;20041;-95
2022/01/21 15:23:46;;;;;;;13.93;8.15;;;;;;;4.65;74.64;101952.03;4874985;29;20059;-96
2022/01/21 15:26:39;;;;;;;10.82;6.95;;;;;;;4.34;75.06;101901.22;4866071;29;20409;-96
2022/01/21 15:29:06;;;;;;;11.75;7.47;;;;;;;4.42;74.55;101929.22;4875986;29;20076;-96
2022/01/21 15:31:38;;;;;;;;;;;;;;;4.54;75.51;101954.63;4872201;29;20057;-94
2022/01/21 15:34:08;;;;;;;16.80;8.18;;;;;;;4.30;75.80;101913.44;4875497;29;19930;-96
2022/01/21 15:36:49;;;;;;;18.65;9.05;;;;;;;4.17;76.29;101912.53;4832436;29;20788;-95
2022/01/21 15:39:24;;;;;;;15.05;8.10;;;;;;;4.28;76.92;101933.53;4874887;29;20053;-96
2022/01/21 15:41:56;;;;;;;18.05;9.13;;;;;;;4.29;76.99;101919.56;4875442;29;20116;-94
2022/01/21 15:44:47;;;;;;;17.42;9.15;;;;;;;4.20;77.35;101925.66;4875501;29;20077;-94
2022/01/21 15:47:20;;;;;;;18.40;9.13;;;;;;;4.01;77.91;101902.88;4873354;29;20069;-93
2022/01/21 15:49:49;;;;;;;18.33;9.60;;;;;;;4.23;78.31;101944.03;4881448;29;20060;-95
2022/01/21 15:52:40;;;;;;;20.58;8.88;;;;;;;4.15;78.19;101923.88;4873982;29;20080;-94
2022/01/21 15:55:24;;;;;;;16.58;9.35;;;;;;;4.25;78.06;101956.28;4868598;29;20061;-95
2022/01/21 15:57:52;;;;;;;16.63;8.65;;;;;;;4.22;78.55;101950.16;4836100;29;20050;-94
2022/01/21 16:00:20;;;;;;;16.15;8.43;;;;;;;4.00;78.58;101922.09;4883420;29;20045;-95
2022/01/21 16:02:49;;;;;;;20.23;9.25;;;;;;;3.86;79.38;101908.94;4881893;29;20049;-95
2022/01/21 16:05:43;;;;;;;20.02;9.40;;;;;;;3.82;79.04;101893.19;5051184;23;20069;-92
2022/01/21 16:09:08;;;;;;;20.55;8.85;;;;;;;4.14;80.10;101964.09;4940207;23;20056;-95
2022/01/21 16:11:52;;;;;;;18.42;8.52;;;;;;;3.93;80.00;101933.44;4898688;29;20044;-92
2022/01/21 16:14:20;;;;;;;21.17;8.63;;;;;;;4.01;79.88;101943.94;4914121;29;20044;-95
2022/01/21 16:17:02;;;;;;;14.75;7.57;;;;;;;3.78;79.97;101904.50;4918993;29;20052;-93
2022/01/21 16:19:32;;;;;;;14.02;7.53;;;;;;;4.02;79.72;101941.31;4923156;29;20045;-93
2022/01/21 16:22:01;;;;;;;16.08;7.22;;;;;;;4.05;79.28;101935.22;4905275;29;20055;-94
2022/01/21 16:24:45;;;;;;;23.63;8.25;;;;;;;3.99;79.57;101935.19;4913144;29;20055;-93
2022/01/21 16:27:20;;;;;;;13.38;6.70;;;;;;;4.17;79.90;101964.97;4899743;29;20052;-94
2022/01/21 16:29:47;;;;;;;15.82;7.25;;;;;;;4.01;80.13;101922.97;4922214;29;20567;-94
2022/01/21 16:32:18;;;;;;;19.10;6.90;;;;;;;4.31;79.62;101959.78;4923593;29;20050;-94
2022/01/21 16:37:48;;;;;;;15.80;7.13;;;;;;;4.03;79.68;101931.72;4931305;23;20076;-94
2022/01/21 16:40:26;;;;;;;12.18;6.10;;;;;;;3.88;79.31;101899.34;4877538;29;20195;-94
2022/01/21 16:46:38;;;;;;;13.77;6.18;;;;;;;3.90;79.96;101908.94;4920940;29;20302;-93
2022/01/21 16:55:39;;;;;;;13.07;5.88;;;;;;;4.21;80.99;101958.88;5554706;23;19930;-93
2022/01/21 16:58:21;;;;;;;11.65;5.20;;;;;;;4.02;80.92;101916.84;4897821;29;20116;-95
2022/01/21 17:01:13;;;;;;;12.40;5.53;;;;;;;4.18;80.25;101939.63;4899703;29;20036;-93
2022/01/21 17:03:54;;;;;;;13.20;5.50;;;;;;;4.05;80.25;101929.97;4892709;29;20044;-95
2022/01/21 17:06:32;;;;;;;11.32;4.82;;;;;;;3.92;80.54;101912.44;4886283;29;20083;-95
2022/01/21 17:09:03;;;;;;;12.63;4.88;;;;;;;3.93;81.09;101915.09;4895786;29;20449;-94
2022/01/21 17:11:45;;;;;;;11.93;5.03;;;;;;;4.11;80.99;101937.84;4883435;29;20085;-95
2022/01/21 17:14:27;;;;;;;9.65;4.85;;;;;;;3.90;81.26;101907.19;4883627;29;20052;-94
2022/01/21 17:16:59;;;;;;;10.57;4.75;;;;;;;4.05;81.23;101927.34;4890908;29;20160;-95
2022/01/21 17:20:08;;;;;;;9.80;4.50;;;;;;;4.10;81.02;101941.34;4901725;29;20088;-94
2022/01/21 17:25:39;;;;;;;12.00;5.00;;;;;;;4.07;80.77;101918.63;5301166;23;20068;-94
2022/01/21 17:28:09;;;;;;;13.02;4.18;;;;;;;4.18;80.77;101930.03;4901140;29;20132;-94
2022/01/21 17:30:37;;;;;;;13.43;4.50;;;;;;;4.14;81.12;101911.66;4883869;29;20084;-95
2022/01/21 17:36:45;;;;;;;10.00;4.60;;;;;;;4.23;80.28;101902.09;5885354;23;20236;-96
2022/01/21 17:45:38;;;;;;;16.63;6.03;;;;;;;4.07;81.30;101894.16;5427206;23;20079;-96
2022/01/21 17:48:17;;;;;;;15.00;5.70;;;;;;;4.04;82.32;101895.03;4939338;29;20054;-96
2022/01/21 17:56:55;;;;;;;15.82;6.40;;;;;;;4.33;83.05;101949.31;5510466;23;20123;-92
2022/01/21 17:59:25;;;;;;;11.40;4.40;;;;;;;4.13;83.66;101910.78;4918779;29;20059;-92
2022/01/21 18:01:53;;;;;;;10.70;4.28;;;;;;;3.91;83.63;101888.00;4907757;29;20040;-93
2022/01/21 18:04:22;;;;;;;9.50;3.72;;;;;;;4.08;83.86;101902.03;4920880;29;20052;-94
2022/01/21 18:06:51;;;;;;;11.27;4.45;;;;;;;4.28;84.79;101940.53;4921435;29;20091;-93
2022/01/21 18:09:31;;;;;;;14.35;5.20;;;;;;;4.18;84.91;101932.66;4912896;29;20056;-94
2022/01/21 18:11:59;;;;;;;8.38;4.75;;;;;;;3.86;85.94;101889.72;4913433;29;20059;-95
2022/01/21 18:14:26;;;;;;;13.02;4.53;;;;;;;4.18;85.97;101947.50;4915270;29;20186;-94
2022/01/21 18:17:22;;;;;;;15.00;4.88;;;;;;;4.21;86.63;101955.38;4911227;29;20052;-94
2022/01/21 18:19:49;;;;;;;12.32;4.32;;;;;;;3.96;87.74;101919.44;4904788;29;20055;-94
2022/01/21 18:22:17;;;;;;;12.00;4.38;;;;;;;4.00;87.62;101926.44;4897812;29;20053;-93
2022/01/21 18:25:10;;;;;;;11.27;4.85;;;;;;;3.95;88.59;101931.66;4908161;29;20084;-95
2022/01/21 18:27:38;;;;;;;11.18;4.82;;;;;;;3.88;89.63;101935.13;4909495;29;20051;-94
2022/01/21 18:30:08;;;;;;;12.63;4.65;;;;;;;3.81;90.41;101921.13;4908063;29;20052;-93
2022/01/21 18:32:55;;;;;;;6.38;4.35;;;;;;;3.96;90.10;101943.03;4907783;29;20068;-95
2022/01/21 18:35:26;;;;;;;17.13;5.30;;;;;;;3.97;91.14;101939.53;4906971;29;20051;-94
2022/01/21 18:37:54;;;;;;;11.32;4.60;;;;;;;3.70;91.39;101912.34;4912232;29;20055;-94
2022/01/21 18:40:21;;;;;;;14.65;5.25;;;;;;;3.70;90.92;101916.69;4890153;29;21000;-93
2022/01/21 18:42:52;;;;;;;10.65;4.80;;;;;;;3.87;91.40;101942.13;4912445;29;20105;-93
2022/01/21 18:45:37;;;;;;;12.52;5.30;;;;;;;3.74;92.34;101914.13;4914061;29;20171;-93
2022/01/21 18:48:09;;;;;;;8.88;4.65;;;;;;;3.65;92.55;101906.19;4934298;29;20064;-93
2022/01/21 18:50:58;;;;;;;13.50;5.55;;;;;;;3.93;92.72;101943.91;4906630;29;20048;-93
2022/01/21 18:53:26;;;;;;;10.45;4.75;;;;;;;3.83;92.16;101926.38;4919759;29;20056;-96
2022/01/21 18:55:56;;;;;;;8.98;5.00;;;;;;;3.74;91.96;101911.50;4909571;29;21609;-93
2022/01/21 18:58:23;;;;;;;12.67;5.10;;;;;;;3.70;92.07;101914.97;4915952;29;20048;-94
2022/01/21 19:00:55;;;;;;;10.77;5.07;;;;;;;3.72;92.36;101923.69;4912388;29;20055;-94
2022/01/21 19:03:23;;;;;;;10.73;4.50;;;;;;;3.86;92.42;101942.13;4915245;29;20411;-94
2022/01/21 19:05:50;;;;;;;8.25;5.05;;;;;;;3.72;92.28;101922.81;4913051;29;20074;-94
2022/01/21 19:08:18;;;;;;;9.60;4.78;;;;;;;3.84;92.27;101936.00;4916920;29;20099;-94
2022/01/21 19:10:48;;;;;;;7.85;4.85;;;;;;;3.83;91.54;101924.63;4914910;29;20058;-94
2022/01/21 19:13:16;;;;;;;7.80;5.20;;;;;;;3.72;92.11;101917.59;4916794;29;20059;-95
2022/01/21 19:15:43;;;;;;;8.98;5.00;;;;;;;3.71;92.37;101932.44;4911812;29;20053;-94
2022/01/21 19:18:26;;;;;;;10.52;5.10;;;;;;;4.01;91.36;101963.16;4915918;29;20068;-94
2022/01/21 19:20:55;;;;;;;9.48;5.05;;;;;;;3.82;91.53;101916.75;4894343;29;20044;-94
2022/01/21 19:23:27;;;;;;;9.82;5.68;;;;;;;4.02;90.99;101964.91;4910490;29;20063;-94
2022/01/21 19:28:33;;;;;;;13.10;5.85;;;;;;;3.67;90.92;101896.59;5073687;23;20060;-95
2022/01/21 19:31:25;;;;;;;9.32;5.88;;;;;;;4.00;90.64;101936.94;4934841;29;20107;-93
2022/01/21 19:34:12;;;;;;;11.10;6.68;;;;;;;4.07;90.51;101939.59;4918194;29;20056;-93
2022/01/21 19:36:43;;;;;;;8.52;5.50;;;;;;;3.94;90.28;101918.53;4930858;29;20067;-93
2022/01/21 19:39:14;;;;;;;11.40;5.90;;;;;;;4.09;90.43;101950.94;4932009;29;20475;-93
2022/01/21 19:41:44;;;;;;;10.07;5.95;;;;;;;4.03;90.54;101940.47;4926153;29;20040;-93
2022/01/21 19:44:25;;;;;;;7.95;5.03;;;;;;;4.16;90.63;101967.59;5197470;23;20372;-94
2022/01/21 19:46:57;;;;;;;8.60;5.70;;;;;;;4.13;90.87;101967.56;4872730;29;20104;-94
2022/01/21 19:49:27;;;;;;;11.82;6.05;;;;;;;4.03;90.86;101950.06;4868637;29;20060;-93
2022/01/21 19:51:55;;;;;;;10.57;5.55;;;;;;;4.25;90.45;101975.47;4871554;29;20128;-92
2022/01/21 19:54:22;;;;;;;13.40;5.65;;;;;;;4.27;90.68;101980.75;4870682;29;20056;-95
2022/01/21 19:57:20;;;;;;;12.93;6.88;;;;;;;4.22;90.71;101963.25;4876576;29;20127;-94
2022/01/21 20:00:51;;;;;;;10.40;6.70;;;;;;;4.00;90.14;101921.22;4872366;29;20109;-94
2022/01/21 20:05:53;;;;;;;14.25;6.72;;;;;;;4.00;90.01;101918.59;4865662;29;20053;-94
2022/01/21 20:08:37;;;;;;;11.57;6.97;;;;;;;4.12;90.25;101944.84;4873030;29;20120;-94
2022/01/21 20:11:19;;;;;;;12.85;7.55;;;;;;;4.13;90.58;101943.97;4873200;29;20056;-94
2022/01/21 20:14:06;;;;;;;13.07;8.00;;;;;;;4.32;90.86;101987.75;4874504;29;20052;-94
2022/01/21 20:16:33;;;;;;;14.25;9.00;;;;;;;4.37;91.48;101988.66;4875183;29;20496;-95
2022/01/21 20:19:03;;;;;;;16.55;9.77;;;;;;;4.23;90.65;101956.28;4871111;29;20052;-94
2022/01/21 20:21:36;;;;;;;19.55;10.32;;;;;;;4.15;90.61;101919.53;4869266;29;20065;-94
2022/01/21 20:24:05;;;;;;;15.07;11.13;;;;;;;4.50;91.00;101976.47;4873590;29;20053;-94
2022/01/21 20:26:34;;;;;;;17.42;11.13;;;;;;;4.43;91.04;101951.06;4855433;29;20091;-94
2022/01/21 20:29:05;;;;;;;17.75;11.57;;;;;;;4.46;90.98;101949.34;4874399;29;20069;-95
2022/01/21 20:31:50;;;;;;;22.38;12.15;;;;;;;4.50;91.04;101950.22;4870947;29;20109;-94
2022/01/21 20:34:22;;;;;;;18.30;11.80;;;;;;;4.64;90.92;101971.25;4876930;29;20108;-94
2022/01/21 20:36:54;;;;;;;19.27;11.85;;;;;;;4.51;90.89;101949.38;4878979;29;20048;-94
2022/01/21 20:39:33;;;;;;;16.95;11.85;;;;;;;4.59;91.39;101963.38;4884579;29;20059;-95
2022/01/21 20:42:05;;;;;;;19.25;12.48;;;;;;;4.57;91.79;101960.72;4884291;29;20064;-94
2022/01/21 20:44:37;;;;;;;24.05;14.40;;;;;;;4.49;91.86;101941.50;4873859;29;20583;-94
2022/01/21 20:47:06;;;;;;;;;;;;;;;4.63;91.25;101959.88;4892593;29;20112;-95
2022/01/21 20:49:35;;;;;;;21.77;13.57;;;;;;;4.44;91.93;101924.84;4878443;29;19931;-94
2022/01/21 20:52:04;;;;;;;27.83;14.48;;;;;;;4.57;92.06;101941.50;4880670;29;20800;-96
2022/01/21 20:54:35;;;;;;;24.95;15.55;;;;;;;4.57;92.63;101952.84;4887985;29;20080;-96
2022/01/21 20:57:05;;;;;;;25.85;15.63;;;;;;;4.42;92.95;101917.84;4883761;29;20132;-94
2022/01/21 20:59:36;;;;;;;28.40;17.38;;;;;;;4.46;92.55;101917.88;4886112;29;20045;-95
2022/01/21 21:02:06;;;;;;;25.58;15.27;;;;;;;4.37;93.10;101907.38;4878165;29;20052;-93
2022/01/21 21:04:37;;;;;;;20.23;14.88;;;;;;;4.22;92.98;101876.75;4883225;29;20059;-95
2022/01/21 21:07:10;;;;;;;22.13;14.68;;;;;;;4.38;92.89;101903.00;4885025;29;20057;-96
2022/01/21 21:09:42;;;;;;;29.75;14.45;;;;;;;4.43;93.21;101899.50;4888646;29;20068;-94
2022/01/21 21:12:15;;;;;;;21.92;13.65;;;;;;;4.43;92.34;101886.38;4865857;29;20056;-96
2022/01/21 21:14:51;;;;;;;19.20;13.32;;;;;;;4.37;92.32;101860.16;4863820;29;20056;-94
2022/01/21 21:26:37;;;;;;;;;;;;;;;;;;;;;
2022/01/21 23:01:28;;;;;;;16.30;11.38;;;;;;;4.55;92.32;101889.03;4878085;29;20049;-93
2022/01/21 23:04:00;;;;;;;17.60;11.57;;;;;;;4.70;92.50;101895.19;4886481;29;20049;-93
2022/01/21 23:06:49;;;;;;;17.50;10.57;;;;;;;4.69;91.91;101899.56;4884558;29;20071;-93
2022/01/21 23:09:16;;;;;;;15.23;11.52;;;;;;;4.65;91.04;101875.94;4881945;29;20049;-93
2022/01/21 23:11:54;;;;;;;14.85;10.82;;;;;;;4.73;90.63;101874.16;4860560;29;20053;-93
2022/01/21 23:14:26;;;;;;;15.05;9.82;;;;;;;4.94;89.56;101890.81;4877654;29;20425;-94
